sensor_id;sensor_type;location;lat;lon;timestamp;P1;durP1;ratioP1;P2;durP2;ratioP2
12363;SDS011;6246;50.826;4.712;2022-07-03T00:02:17;1.30;;;1.00;;
12363;SDS011;6246;50.826;4.712;2022-07-03T00:04:43;1.30;;;1.20;;
12363;SDS011;6246;50.826;4.712;2022-07-03T00:07:09;1.47;;;1.00;;
12363;SDS011;6246;50.826;4.712;2022-07-03T00:09:35;1.27;;;0.93;;
12363;SDS011;6246;50.826;4.712;2022-07-03T00:12:01;1.53;;;1.00;;
12363;SDS011;6246;50.826;4.712;2022-07-03T00:14:27;1.37;;;0.97;;
12363;SDS011;6246;50.826;4.712;2022-07-03T00:16:53;1.23;;;0.97;;
12363;SDS011;6246;50.826;4.712;2022-07-03T00:19:19;1.50;;;1.07;;
12363;SDS011;6246;50.826;4.712;2022-07-03T00:24:24;1.10;;;1.00;;
12363;SDS011;6246;50.826;4.712;2022-07-03T00:26:51;2.07;;;1.30;;
12363;SDS011;6246;50.826;4.712;2022-07-03T00:29:19;1.00;;;0.90;;
12363;SDS011;6246;50.826;4.712;2022-07-03T00:31:46;1.80;;;1.33;;
12363;SDS011;6246;50.826;4.712;2022-07-03T00:34:12;1.57;;;1.20;;
12363;SDS011;6246;50.826;4.712;2022-07-03T00:36:40;1.43;;;1.10;;
12363;SDS011;6246;50.826;4.712;2022-07-03T00:39:07;2.23;;;0.90;;
12363;SDS011;6246;50.826;4.712;2022-07-03T00:41:33;1.13;;;0.97;;
12363;SDS011;6246;50.826;4.712;2022-07-03T00:44:00;0.93;;;0.73;;
12363;SDS011;6246;50.826;4.712;2022-07-03T00:46:26;2.67;;;0.90;;
12363;SDS011;6246;50.826;4.712;2022-07-03T00:48:53;1.33;;;1.00;;
12363;SDS011;6246;50.826;4.712;2022-07-03T00:51:20;1.73;;;1.27;;
12363;SDS011;6246;50.826;4.712;2022-07-03T00:53:47;1.83;;;1.00;;
12363;SDS011;6246;50.826;4.712;2022-07-03T00:56:14;2.57;;;1.17;;
12363;SDS011;6246;50.826;4.712;2022-07-03T00:58:41;1.17;;;1.07;;
12363;SDS011;6246;50.826;4.712;2022-07-03T01:01:07;1.73;;;1.07;;
12363;SDS011;6246;50.826;4.712;2022-07-03T01:03:35;1.57;;;1.10;;
12363;SDS011;6246;50.826;4.712;2022-07-03T01:06:09;1.00;;;1.00;;
12363;SDS011;6246;50.826;4.712;2022-07-03T01:11:20;2.37;;;1.33;;
12363;SDS011;6246;50.826;4.712;2022-07-03T01:16:24;2.27;;;1.10;;
12363;SDS011;6246;50.826;4.712;2022-07-03T01:26:17;1.43;;;1.07;;
12363;SDS011;6246;50.826;4.712;2022-07-03T01:28:44;1.17;;;1.07;;
12363;SDS011;6246;50.826;4.712;2022-07-03T01:31:13;1.73;;;1.07;;
12363;SDS011;6246;50.826;4.712;2022-07-03T01:33:43;1.43;;;1.00;;
12363;SDS011;6246;50.826;4.712;2022-07-03T01:36:10;3.90;;;1.40;;
12363;SDS011;6246;50.826;4.712;2022-07-03T01:38:39;2.60;;;1.10;;
12363;SDS011;6246;50.826;4.712;2022-07-03T01:41:07;2.10;;;1.43;;
12363;SDS011;6246;50.826;4.712;2022-07-03T01:43:36;1.83;;;0.90;;
12363;SDS011;6246;50.826;4.712;2022-07-03T01:46:04;40.43;;;5.10;;
12363;SDS011;6246;50.826;4.712;2022-07-03T01:48:31;16.77;;;3.17;;
12363;SDS011;6246;50.826;4.712;2022-07-03T01:50:57;3.97;;;1.30;;
12363;SDS011;6246;50.826;4.712;2022-07-03T01:53:24;3.97;;;1.20;;
12363;SDS011;6246;50.826;4.712;2022-07-03T01:55:51;1.27;;;1.00;;
12363;SDS011;6246;50.826;4.712;2022-07-03T01:58:20;2.00;;;1.00;;
12363;SDS011;6246;50.826;4.712;2022-07-03T02:00:47;0.90;;;0.83;;
12363;SDS011;6246;50.826;4.712;2022-07-03T02:03:24;2.13;;;1.13;;
12363;SDS011;6246;50.826;4.712;2022-07-03T02:05:53;2.67;;;1.23;;
12363;SDS011;6246;50.826;4.712;2022-07-03T02:08:30;1.60;;;1.10;;
12363;SDS011;6246;50.826;4.712;2022-07-03T02:13:32;1.97;;;0.90;;
12363;SDS011;6246;50.826;4.712;2022-07-03T02:16:03;2.90;;;1.37;;
12363;SDS011;6246;50.826;4.712;2022-07-03T02:18:33;1.10;;;0.80;;
12363;SDS011;6246;50.826;4.712;2022-07-03T02:21:19;0.80;;;0.77;;
12363;SDS011;6246;50.826;4.712;2022-07-03T02:26:25;1.60;;;0.77;;
12363;SDS011;6246;50.826;4.712;2022-07-03T02:28:58;1.50;;;1.10;;
12363;SDS011;6246;50.826;4.712;2022-07-03T02:31:24;1.07;;;0.90;;
12363;SDS011;6246;50.826;4.712;2022-07-03T02:33:55;2.43;;;1.17;;
12363;SDS011;6246;50.826;4.712;2022-07-03T02:36:23;1.43;;;0.80;;
12363;SDS011;6246;50.826;4.712;2022-07-03T02:38:52;1.80;;;1.00;;
12363;SDS011;6246;50.826;4.712;2022-07-03T02:49:16;2.37;;;0.93;;
12363;SDS011;6246;50.826;4.712;2022-07-03T02:51:54;2.23;;;1.07;;
12363;SDS011;6246;50.826;4.712;2022-07-03T02:54:23;0.97;;;0.80;;
12363;SDS011;6246;50.826;4.712;2022-07-03T02:56:55;1.23;;;1.00;;
12363;SDS011;6246;50.826;4.712;2022-07-03T02:59:39;1.70;;;1.03;;
12363;SDS011;6246;50.826;4.712;2022-07-03T03:04:57;1.33;;;1.10;;
12363;SDS011;6246;50.826;4.712;2022-07-03T03:07:29;2.20;;;1.10;;
12363;SDS011;6246;50.826;4.712;2022-07-03T03:09:59;0.93;;;0.73;;
12363;SDS011;6246;50.826;4.712;2022-07-03T03:12:29;1.10;;;1.00;;
12363;SDS011;6246;50.826;4.712;2022-07-03T03:14:58;2.17;;;1.07;;
12363;SDS011;6246;50.826;4.712;2022-07-03T03:17:26;3.10;;;1.47;;
12363;SDS011;6246;50.826;4.712;2022-07-03T03:19:57;1.63;;;0.73;;
12363;SDS011;6246;50.826;4.712;2022-07-03T03:24:50;1.57;;;1.03;;
12363;SDS011;6246;50.826;4.712;2022-07-03T03:27:16;1.07;;;0.70;;
12363;SDS011;6246;50.826;4.712;2022-07-03T03:29:43;0.97;;;0.80;;
12363;SDS011;6246;50.826;4.712;2022-07-03T03:32:09;0.97;;;0.90;;
12363;SDS011;6246;50.826;4.712;2022-07-03T03:34:36;1.53;;;0.83;;
12363;SDS011;6246;50.826;4.712;2022-07-03T03:37:02;0.53;;;0.53;;
12363;SDS011;6246;50.826;4.712;2022-07-03T03:39:28;1.77;;;0.80;;
12363;SDS011;6246;50.826;4.712;2022-07-03T03:41:54;1.00;;;0.90;;
12363;SDS011;6246;50.826;4.712;2022-07-03T03:44:20;1.07;;;1.03;;
12363;SDS011;6246;50.826;4.712;2022-07-03T03:46:46;0.90;;;0.77;;
12363;SDS011;6246;50.826;4.712;2022-07-03T03:49:12;2.37;;;1.10;;
12363;SDS011;6246;50.826;4.712;2022-07-03T03:51:39;0.80;;;0.80;;
12363;SDS011;6246;50.826;4.712;2022-07-03T03:54:05;0.83;;;0.70;;
12363;SDS011;6246;50.826;4.712;2022-07-03T03:56:31;0.83;;;0.73;;
12363;SDS011;6246;50.826;4.712;2022-07-03T03:58:57;1.03;;;0.70;;
12363;SDS011;6246;50.826;4.712;2022-07-03T04:01:23;3.30;;;1.00;;
12363;SDS011;6246;50.826;4.712;2022-07-03T04:03:49;1.07;;;0.90;;
12363;SDS011;6246;50.826;4.712;2022-07-03T04:06:15;1.17;;;0.80;;
12363;SDS011;6246;50.826;4.712;2022-07-03T04:08:44;1.47;;;0.90;;
12363;SDS011;6246;50.826;4.712;2022-07-03T04:11:10;0.83;;;0.83;;
12363;SDS011;6246;50.826;4.712;2022-07-03T04:13:36;1.23;;;0.83;;
12363;SDS011;6246;50.826;4.712;2022-07-03T04:16:02;1.10;;;0.80;;
12363;SDS011;6246;50.826;4.712;2022-07-03T04:18:28;0.97;;;0.87;;
12363;SDS011;6246;50.826;4.712;2022-07-03T04:20:54;1.07;;;0.87;;
12363;SDS011;6246;50.826;4.712;2022-07-03T04:23:20;0.77;;;0.70;;
12363;SDS011;6246;50.826;4.712;2022-07-03T04:25:46;1.10;;;0.63;;
12363;SDS011;6246;50.826;4.712;2022-07-03T04:28:12;1.27;;;1.00;;
12363;SDS011;6246;50.826;4.712;2022-07-03T04:30:39;1.83;;;1.27;;
12363;SDS011;6246;50.826;4.712;2022-07-03T04:33:05;1.03;;;0.80;;
12363;SDS011;6246;50.826;4.712;2022-07-03T04:35:31;1.03;;;0.97;;
12363;SDS011;6246;50.826;4.712;2022-07-03T04:37:57;1.13;;;0.80;;
12363;SDS011;6246;50.826;4.712;2022-07-03T04:40:23;0.87;;;0.80;;
12363;SDS011;6246;50.826;4.712;2022-07-03T04:42:49;2.73;;;0.83;;
12363;SDS011;6246;50.826;4.712;2022-07-03T04:45:15;1.00;;;0.73;;
12363;SDS011;6246;50.826;4.712;2022-07-03T04:47:41;0.70;;;0.70;;
12363;SDS011;6246;50.826;4.712;2022-07-03T04:50:07;1.03;;;0.90;;
12363;SDS011;6246;50.826;4.712;2022-07-03T04:52:33;1.10;;;0.67;;
12363;SDS011;6246;50.826;4.712;2022-07-03T04:54:59;0.97;;;0.97;;
12363;SDS011;6246;50.826;4.712;2022-07-03T04:57:25;0.87;;;0.80;;
12363;SDS011;6246;50.826;4.712;2022-07-03T04:59:53;1.27;;;0.90;;
12363;SDS011;6246;50.826;4.712;2022-07-03T05:02:19;0.80;;;0.80;;
12363;SDS011;6246;50.826;4.712;2022-07-03T05:04:45;1.07;;;0.77;;
12363;SDS011;6246;50.826;4.712;2022-07-03T05:07:11;1.63;;;0.90;;
12363;SDS011;6246;50.826;4.712;2022-07-03T05:09:37;0.83;;;0.83;;
12363;SDS011;6246;50.826;4.712;2022-07-03T05:12:03;1.47;;;1.17;;
12363;SDS011;6246;50.826;4.712;2022-07-03T05:14:29;0.70;;;0.70;;
12363;SDS011;6246;50.826;4.712;2022-07-03T05:16:55;0.93;;;0.93;;
12363;SDS011;6246;50.826;4.712;2022-07-03T05:19:21;0.90;;;0.90;;
12363;SDS011;6246;50.826;4.712;2022-07-03T05:21:47;1.33;;;0.70;;
12363;SDS011;6246;50.826;4.712;2022-07-03T05:24:13;0.70;;;0.67;;
12363;SDS011;6246;50.826;4.712;2022-07-03T05:26:39;1.00;;;0.80;;
12363;SDS011;6246;50.826;4.712;2022-07-03T05:29:05;0.57;;;0.57;;
12363;SDS011;6246;50.826;4.712;2022-07-03T05:31:31;1.27;;;1.17;;
12363;SDS011;6246;50.826;4.712;2022-07-03T05:33:57;1.20;;;0.77;;
12363;SDS011;6246;50.826;4.712;2022-07-03T05:36:23;1.00;;;0.80;;
12363;SDS011;6246;50.826;4.712;2022-07-03T05:38:49;0.63;;;0.63;;
12363;SDS011;6246;50.826;4.712;2022-07-03T05:41:34;1.33;;;0.70;;
12363;SDS011;6246;50.826;4.712;2022-07-03T05:44:00;0.80;;;0.80;;
12363;SDS011;6246;50.826;4.712;2022-07-03T05:46:26;0.70;;;0.70;;
12363;SDS011;6246;50.826;4.712;2022-07-03T05:48:52;0.77;;;0.70;;
12363;SDS011;6246;50.826;4.712;2022-07-03T05:51:18;1.37;;;0.77;;
12363;SDS011;6246;50.826;4.712;2022-07-03T05:53:44;0.70;;;0.70;;
12363;SDS011;6246;50.826;4.712;2022-07-03T05:56:10;1.07;;;0.70;;
12363;SDS011;6246;50.826;4.712;2022-07-03T05:58:36;0.60;;;0.60;;
12363;SDS011;6246;50.826;4.712;2022-07-03T06:01:02;1.17;;;0.53;;
12363;SDS011;6246;50.826;4.712;2022-07-03T06:03:28;0.83;;;0.80;;
12363;SDS011;6246;50.826;4.712;2022-07-03T06:05:54;1.43;;;0.87;;
12363;SDS011;6246;50.826;4.712;2022-07-03T06:08:20;1.33;;;0.73;;
12363;SDS011;6246;50.826;4.712;2022-07-03T06:10:46;0.57;;;0.57;;
12363;SDS011;6246;50.826;4.712;2022-07-03T06:13:12;0.40;;;0.40;;
12363;SDS011;6246;50.826;4.712;2022-07-03T06:15:38;0.97;;;0.60;;
12363;SDS011;6246;50.826;4.712;2022-07-03T06:18:04;0.60;;;0.60;;
12363;SDS011;6246;50.826;4.712;2022-07-03T06:20:30;1.30;;;0.97;;
12363;SDS011;6246;50.826;4.712;2022-07-03T06:22:56;0.57;;;0.53;;
12363;SDS011;6246;50.826;4.712;2022-07-03T06:25:22;0.70;;;0.70;;
12363;SDS011;6246;50.826;4.712;2022-07-03T06:27:49;0.60;;;0.60;;
12363;SDS011;6246;50.826;4.712;2022-07-03T06:30:15;0.60;;;0.60;;
12363;SDS011;6246;50.826;4.712;2022-07-03T06:32:41;0.80;;;0.80;;
12363;SDS011;6246;50.826;4.712;2022-07-03T06:35:07;0.97;;;0.70;;
12363;SDS011;6246;50.826;4.712;2022-07-03T06:37:33;0.67;;;0.67;;
12363;SDS011;6246;50.826;4.712;2022-07-03T06:39:59;0.80;;;0.80;;
12363;SDS011;6246;50.826;4.712;2022-07-03T06:42:25;1.07;;;0.90;;
12363;SDS011;6246;50.826;4.712;2022-07-03T06:44:51;1.50;;;1.20;;
12363;SDS011;6246;50.826;4.712;2022-07-03T06:47:17;0.73;;;0.70;;
12363;SDS011;6246;50.826;4.712;2022-07-03T06:49:43;1.03;;;0.60;;
12363;SDS011;6246;50.826;4.712;2022-07-03T06:52:09;0.70;;;0.70;;
12363;SDS011;6246;50.826;4.712;2022-07-03T06:54:36;1.13;;;0.63;;
12363;SDS011;6246;50.826;4.712;2022-07-03T06:57:08;0.60;;;0.60;;
12363;SDS011;6246;50.826;4.712;2022-07-03T06:59:35;0.80;;;0.80;;
12363;SDS011;6246;50.826;4.712;2022-07-03T07:02:01;0.90;;;0.70;;
12363;SDS011;6246;50.826;4.712;2022-07-03T07:04:27;1.77;;;0.90;;
12363;SDS011;6246;50.826;4.712;2022-07-03T07:06:53;1.03;;;0.80;;
12363;SDS011;6246;50.826;4.712;2022-07-03T07:09:19;1.03;;;0.80;;
12363;SDS011;6246;50.826;4.712;2022-07-03T07:11:45;1.20;;;0.80;;
12363;SDS011;6246;50.826;4.712;2022-07-03T07:14:11;1.03;;;0.70;;
12363;SDS011;6246;50.826;4.712;2022-07-03T07:16:37;0.97;;;0.90;;
12363;SDS011;6246;50.826;4.712;2022-07-03T07:19:03;1.00;;;0.80;;
12363;SDS011;6246;50.826;4.712;2022-07-03T07:21:29;1.37;;;0.50;;
12363;SDS011;6246;50.826;4.712;2022-07-03T07:23:55;0.70;;;0.50;;
12363;SDS011;6246;50.826;4.712;2022-07-03T07:26:21;0.97;;;0.73;;
12363;SDS011;6246;50.826;4.712;2022-07-03T07:28:47;1.20;;;1.10;;
12363;SDS011;6246;50.826;4.712;2022-07-03T07:31:13;2.77;;;0.73;;
12363;SDS011;6246;50.826;4.712;2022-07-03T07:33:39;0.40;;;0.40;;
12363;SDS011;6246;50.826;4.712;2022-07-03T07:36:05;0.60;;;0.50;;
12363;SDS011;6246;50.826;4.712;2022-07-03T07:38:31;1.03;;;0.70;;
12363;SDS011;6246;50.826;4.712;2022-07-03T07:40:57;0.80;;;0.80;;
12363;SDS011;6246;50.826;4.712;2022-07-03T07:43:23;0.77;;;0.77;;
12363;SDS011;6246;50.826;4.712;2022-07-03T07:45:49;0.30;;;0.30;;
12363;SDS011;6246;50.826;4.712;2022-07-03T07:48:15;0.80;;;0.60;;
12363;SDS011;6246;50.826;4.712;2022-07-03T07:50:43;1.40;;;0.90;;
12363;SDS011;6246;50.826;4.712;2022-07-03T07:53:09;1.03;;;0.80;;
12363;SDS011;6246;50.826;4.712;2022-07-03T07:55:35;0.73;;;0.63;;
12363;SDS011;6246;50.826;4.712;2022-07-03T07:58:01;1.23;;;0.80;;
12363;SDS011;6246;50.826;4.712;2022-07-03T08:00:27;0.63;;;0.63;;
12363;SDS011;6246;50.826;4.712;2022-07-03T08:02:53;0.50;;;0.50;;
12363;SDS011;6246;50.826;4.712;2022-07-03T08:05:38;1.07;;;0.60;;
12363;SDS011;6246;50.826;4.712;2022-07-03T08:10:34;1.03;;;0.70;;
12363;SDS011;6246;50.826;4.712;2022-07-03T08:13:00;1.13;;;0.80;;
12363;SDS011;6246;50.826;4.712;2022-07-03T08:15:26;2.30;;;0.80;;
12363;SDS011;6246;50.826;4.712;2022-07-03T08:17:52;13.30;;;2.10;;
12363;SDS011;6246;50.826;4.712;2022-07-03T08:20:18;10.20;;;1.90;;
12363;SDS011;6246;50.826;4.712;2022-07-03T08:22:44;1.63;;;0.90;;
12363;SDS011;6246;50.826;4.712;2022-07-03T08:25:10;6.73;;;1.53;;
12363;SDS011;6246;50.826;4.712;2022-07-03T08:27:36;14.53;;;2.20;;
12363;SDS011;6246;50.826;4.712;2022-07-03T08:30:02;5.30;;;1.07;;
12363;SDS011;6246;50.826;4.712;2022-07-03T08:32:28;27.50;;;4.23;;
12363;SDS011;6246;50.826;4.712;2022-07-03T08:34:54;13.50;;;2.90;;
12363;SDS011;6246;50.826;4.712;2022-07-03T08:37:20;17.93;;;2.13;;
12363;SDS011;6246;50.826;4.712;2022-07-03T08:39:46;3.93;;;1.60;;
12363;SDS011;6246;50.826;4.712;2022-07-03T08:42:12;6.20;;;1.57;;
12363;SDS011;6246;50.826;4.712;2022-07-03T08:44:40;6.83;;;1.57;;
12363;SDS011;6246;50.826;4.712;2022-07-03T08:47:11;6.63;;;1.50;;
12363;SDS011;6246;50.826;4.712;2022-07-03T08:49:37;10.70;;;1.70;;
12363;SDS011;6246;50.826;4.712;2022-07-03T08:52:03;7.90;;;1.23;;
12363;SDS011;6246;50.826;4.712;2022-07-03T08:54:34;7.77;;;1.37;;
12363;SDS011;6246;50.826;4.712;2022-07-03T08:57:01;11.07;;;1.60;;
12363;SDS011;6246;50.826;4.712;2022-07-03T08:59:32;11.27;;;1.77;;
12363;SDS011;6246;50.826;4.712;2022-07-03T09:02:02;6.53;;;1.70;;
12363;SDS011;6246;50.826;4.712;2022-07-03T09:04:29;4.17;;;1.40;;
12363;SDS011;6246;50.826;4.712;2022-07-03T09:06:55;9.83;;;1.60;;
12363;SDS011;6246;50.826;4.712;2022-07-03T09:09:22;6.63;;;1.33;;
12363;SDS011;6246;50.826;4.712;2022-07-03T09:11:48;4.87;;;1.10;;
12363;SDS011;6246;50.826;4.712;2022-07-03T09:14:15;4.97;;;1.30;;
12363;SDS011;6246;50.826;4.712;2022-07-03T09:16:41;3.03;;;1.00;;
12363;SDS011;6246;50.826;4.712;2022-07-03T09:19:08;5.43;;;1.17;;
12363;SDS011;6246;50.826;4.712;2022-07-03T09:21:35;6.17;;;1.37;;
12363;SDS011;6246;50.826;4.712;2022-07-03T09:24:05;3.87;;;1.30;;
12363;SDS011;6246;50.826;4.712;2022-07-03T09:26:33;3.17;;;1.30;;
12363;SDS011;6246;50.826;4.712;2022-07-03T09:28:59;10.53;;;1.67;;
12363;SDS011;6246;50.826;4.712;2022-07-03T09:31:26;7.37;;;1.50;;
12363;SDS011;6246;50.826;4.712;2022-07-03T09:39:37;4.07;;;1.10;;
12363;SDS011;6246;50.826;4.712;2022-07-03T09:42:00;4.77;;;1.47;;
12363;SDS011;6246;50.826;4.712;2022-07-03T09:44:34;5.27;;;1.23;;
12363;SDS011;6246;50.826;4.712;2022-07-03T09:47:07;3.60;;;0.97;;
12363;SDS011;6246;50.826;4.712;2022-07-03T09:50:06;2.07;;;1.03;;
12363;SDS011;6246;50.826;4.712;2022-07-03T09:52:32;4.70;;;0.93;;
12363;SDS011;6246;50.826;4.712;2022-07-03T09:54:58;2.90;;;0.70;;
12363;SDS011;6246;50.826;4.712;2022-07-03T09:57:28;1.40;;;0.77;;
12363;SDS011;6246;50.826;4.712;2022-07-03T10:05:41;3.08;;;1.13;;
12363;SDS011;6246;50.826;4.712;2022-07-03T10:08:16;1.10;;;0.80;;
12363;SDS011;6246;50.826;4.712;2022-07-03T10:10:47;2.92;;;1.00;;
12363;SDS011;6246;50.826;4.712;2022-07-03T10:13:14;4.05;;;1.00;;
12363;SDS011;6246;50.826;4.712;2022-07-03T10:15:40;1.55;;;0.82;;
12363;SDS011;6246;50.826;4.712;2022-07-03T10:18:11;6.70;;;1.17;;
12363;SDS011;6246;50.826;4.712;2022-07-03T10:20:45;3.60;;;0.88;;
12363;SDS011;6246;50.826;4.712;2022-07-03T10:23:11;4.07;;;0.98;;
12363;SDS011;6246;50.826;4.712;2022-07-03T10:25:41;3.70;;;1.02;;
12363;SDS011;6246;50.826;4.712;2022-07-03T10:28:07;2.78;;;1.13;;
12363;SDS011;6246;50.826;4.712;2022-07-03T10:30:34;2.72;;;1.27;;
12363;SDS011;6246;50.826;4.712;2022-07-03T10:33:00;6.65;;;1.20;;
12363;SDS011;6246;50.826;4.712;2022-07-03T10:35:33;9.25;;;1.27;;
12363;SDS011;6246;50.826;4.712;2022-07-03T10:43:21;2.63;;;0.93;;
12363;SDS011;6246;50.826;4.712;2022-07-03T10:54:17;2.10;;;0.70;;
12363;SDS011;6246;50.826;4.712;2022-07-03T11:02:21;2.95;;;1.13;;
12363;SDS011;6246;50.826;4.712;2022-07-03T11:07:29;2.13;;;0.80;;
12363;SDS011;6246;50.826;4.712;2022-07-03T11:15:31;2.08;;;0.90;;
12363;SDS011;6246;50.826;4.712;2022-07-03T11:18:16;1.80;;;0.95;;
12363;SDS011;6246;50.826;4.712;2022-07-03T11:25:48;2.42;;;1.17;;
12363;SDS011;6246;50.826;4.712;2022-07-03T11:33:42;4.55;;;1.05;;
12363;SDS011;6246;50.826;4.712;2022-07-03T11:38:41;3.30;;;0.85;;
12363;SDS011;6246;50.826;4.712;2022-07-03T11:41:08;2.72;;;1.05;;
12363;SDS011;6246;50.826;4.712;2022-07-03T11:43:35;1.80;;;0.70;;
12363;SDS011;6246;50.826;4.712;2022-07-03T11:46:01;3.90;;;0.93;;
12363;SDS011;6246;50.826;4.712;2022-07-03T11:48:28;3.60;;;0.70;;
12363;SDS011;6246;50.826;4.712;2022-07-03T11:50:59;2.20;;;0.60;;
12363;SDS011;6246;50.826;4.712;2022-07-03T11:53:30;3.08;;;1.00;;
12363;SDS011;6246;50.826;4.712;2022-07-03T11:55:57;1.35;;;0.90;;
12363;SDS011;6246;50.826;4.712;2022-07-03T11:58:25;2.88;;;0.70;;
12363;SDS011;6246;50.826;4.712;2022-07-03T12:00:51;1.70;;;0.70;;
12363;SDS011;6246;50.826;4.712;2022-07-03T12:03:23;1.70;;;0.60;;
12363;SDS011;6246;50.826;4.712;2022-07-03T12:05:53;0.98;;;0.50;;
12363;SDS011;6246;50.826;4.712;2022-07-03T12:08:23;2.53;;;0.82;;
12363;SDS011;6246;50.826;4.712;2022-07-03T12:10:49;2.03;;;0.60;;
12363;SDS011;6246;50.826;4.712;2022-07-03T12:13:22;1.05;;;0.60;;
12363;SDS011;6246;50.826;4.712;2022-07-03T12:15:48;1.95;;;0.80;;
12363;SDS011;6246;50.826;4.712;2022-07-03T12:18:15;2.10;;;0.75;;
12363;SDS011;6246;50.826;4.712;2022-07-03T12:20:41;2.08;;;0.90;;
12363;SDS011;6246;50.826;4.712;2022-07-03T12:23:07;0.75;;;0.50;;
12363;SDS011;6246;50.826;4.712;2022-07-03T12:25:37;1.70;;;0.50;;
12363;SDS011;6246;50.826;4.712;2022-07-03T12:28:04;1.50;;;0.50;;
12363;SDS011;6246;50.826;4.712;2022-07-03T12:30:32;3.30;;;0.70;;
12363;SDS011;6246;50.826;4.712;2022-07-03T12:32:58;2.90;;;0.70;;
12363;SDS011;6246;50.826;4.712;2022-07-03T12:35:25;0.55;;;0.50;;
12363;SDS011;6246;50.826;4.712;2022-07-03T12:37:51;0.73;;;0.70;;
12363;SDS011;6246;50.826;4.712;2022-07-03T12:40:17;1.17;;;0.90;;
12363;SDS011;6246;50.826;4.712;2022-07-03T12:42:47;0.43;;;0.43;;
12363;SDS011;6246;50.826;4.712;2022-07-03T12:45:14;1.85;;;0.55;;
12363;SDS011;6246;50.826;4.712;2022-07-03T12:47:40;0.95;;;0.60;;
12363;SDS011;6246;50.826;4.712;2022-07-03T12:50:07;1.77;;;0.90;;
12363;SDS011;6246;50.826;4.712;2022-07-03T12:52:34;0.68;;;0.63;;
12363;SDS011;6246;50.826;4.712;2022-07-03T12:55:07;1.13;;;0.88;;
12363;SDS011;6246;50.826;4.712;2022-07-03T12:57:47;0.63;;;0.50;;
12363;SDS011;6246;50.826;4.712;2022-07-03T13:00:32;0.82;;;0.47;;
12363;SDS011;6246;50.826;4.712;2022-07-03T13:03:08;1.08;;;0.57;;
12363;SDS011;6246;50.826;4.712;2022-07-03T13:05:51;0.95;;;0.45;;
12363;SDS011;6246;50.826;4.712;2022-07-03T13:08:17;0.80;;;0.45;;
12363;SDS011;6246;50.826;4.712;2022-07-03T13:10:43;0.75;;;0.55;;
12363;SDS011;6246;50.826;4.712;2022-07-03T13:13:09;1.17;;;0.45;;
12363;SDS011;6246;50.826;4.712;2022-07-03T13:15:35;0.52;;;0.50;;
12363;SDS011;6246;50.826;4.712;2022-07-03T13:18:01;0.35;;;0.28;;
12363;SDS011;6246;50.826;4.712;2022-07-03T13:20:28;1.63;;;0.52;;
12363;SDS011;6246;50.826;4.712;2022-07-03T13:22:58;0.70;;;0.45;;
12363;SDS011;6246;50.826;4.712;2022-07-03T13:25:25;0.57;;;0.40;;
12363;SDS011;6246;50.826;4.712;2022-07-03T13:27:51;1.88;;;0.75;;
12363;SDS011;6246;50.826;4.712;2022-07-03T13:30:18;0.93;;;0.50;;
12363;SDS011;6246;50.826;4.712;2022-07-03T13:32:44;0.65;;;0.50;;
12363;SDS011;6246;50.826;4.712;2022-07-03T13:35:11;2.05;;;0.30;;
12363;SDS011;6246;50.826;4.712;2022-07-03T13:37:37;0.70;;;0.63;;
12363;SDS011;6246;50.826;4.712;2022-07-03T13:40:03;2.17;;;0.60;;
12363;SDS011;6246;50.826;4.712;2022-07-03T13:42:30;0.90;;;0.40;;
12363;SDS011;6246;50.826;4.712;2022-07-03T13:44:56;0.73;;;0.30;;
12363;SDS011;6246;50.826;4.712;2022-07-03T13:47:22;1.55;;;0.60;;
12363;SDS011;6246;50.826;4.712;2022-07-03T13:49:48;0.70;;;0.60;;
12363;SDS011;6246;50.826;4.712;2022-07-03T13:52:15;1.70;;;0.80;;
12363;SDS011;6246;50.826;4.712;2022-07-03T13:54:41;2.63;;;0.68;;
12363;SDS011;6246;50.826;4.712;2022-07-03T13:57:07;0.45;;;0.45;;
12363;SDS011;6246;50.826;4.712;2022-07-03T13:59:33;0.30;;;0.30;;
12363;SDS011;6246;50.826;4.712;2022-07-03T14:01:59;0.60;;;0.60;;
12363;SDS011;6246;50.826;4.712;2022-07-03T14:04:25;1.30;;;0.50;;
12363;SDS011;6246;50.826;4.712;2022-07-03T14:06:51;0.55;;;0.50;;
12363;SDS011;6246;50.826;4.712;2022-07-03T14:09:17;1.00;;;0.45;;
12363;SDS011;6246;50.826;4.712;2022-07-03T14:11:43;2.83;;;0.57;;
12363;SDS011;6246;50.826;4.712;2022-07-03T14:14:10;2.97;;;0.55;;
12363;SDS011;6246;50.826;4.712;2022-07-03T14:16:36;1.15;;;0.50;;
12363;SDS011;6246;50.826;4.712;2022-07-03T14:19:02;1.45;;;0.47;;
12363;SDS011;6246;50.826;4.712;2022-07-03T14:21:30;1.13;;;0.75;;
12363;SDS011;6246;50.826;4.712;2022-07-03T14:23:57;0.50;;;0.50;;
12363;SDS011;6246;50.826;4.712;2022-07-03T14:26:23;0.57;;;0.50;;
12363;SDS011;6246;50.826;4.712;2022-07-03T14:29:08;1.67;;;0.50;;
12363;SDS011;6246;50.826;4.712;2022-07-03T14:31:55;0.88;;;0.45;;
12363;SDS011;6246;50.826;4.712;2022-07-03T14:34:41;2.05;;;0.68;;
12363;SDS011;6246;50.826;4.712;2022-07-03T14:37:07;0.57;;;0.50;;
12363;SDS011;6246;50.826;4.712;2022-07-03T14:39:33;0.60;;;0.60;;
12363;SDS011;6246;50.826;4.712;2022-07-03T14:41:59;0.57;;;0.40;;
12363;SDS011;6246;50.826;4.712;2022-07-03T14:44:27;0.90;;;0.65;;
12363;SDS011;6246;50.826;4.712;2022-07-03T14:46:54;1.15;;;0.55;;
12363;SDS011;6246;50.826;4.712;2022-07-03T14:49:20;0.85;;;0.55;;
12363;SDS011;6246;50.826;4.712;2022-07-03T14:51:46;2.17;;;0.60;;
12363;SDS011;6246;50.826;4.712;2022-07-03T14:54:19;2.70;;;0.63;;
12363;SDS011;6246;50.826;4.712;2022-07-03T14:56:54;1.33;;;0.43;;
12363;SDS011;6246;50.826;4.712;2022-07-03T15:00:07;1.50;;;0.50;;
12363;SDS011;6246;50.826;4.712;2022-07-03T15:02:07;0.50;;;0.30;;
12363;SDS011;6246;50.826;4.712;2022-07-03T15:07:38;1.48;;;0.60;;
12363;SDS011;6246;50.826;4.712;2022-07-03T15:10:05;1.48;;;0.40;;
12363;SDS011;6246;50.826;4.712;2022-07-03T15:12:32;0.40;;;0.35;;
12363;SDS011;6246;50.826;4.712;2022-07-03T15:14:58;0.47;;;0.38;;
12363;SDS011;6246;50.826;4.712;2022-07-03T15:17:25;1.73;;;0.63;;
12363;SDS011;6246;50.826;4.712;2022-07-03T15:19:52;1.30;;;0.80;;
12363;SDS011;6246;50.826;4.712;2022-07-03T15:22:19;12.00;;;1.73;;
12363;SDS011;6246;50.826;4.712;2022-07-03T15:24:49;7.50;;;1.52;;
12363;SDS011;6246;50.826;4.712;2022-07-03T15:27:18;3.20;;;0.70;;
12363;SDS011;6246;50.826;4.712;2022-07-03T15:29:44;2.15;;;0.60;;
12363;SDS011;6246;50.826;4.712;2022-07-03T15:32:10;2.42;;;0.63;;
12363;SDS011;6246;50.826;4.712;2022-07-03T15:34:38;3.25;;;0.70;;
12363;SDS011;6246;50.826;4.712;2022-07-03T15:39:57;1.55;;;0.63;;
12363;SDS011;6246;50.826;4.712;2022-07-03T15:45:00;3.55;;;1.10;;
12363;SDS011;6246;50.826;4.712;2022-07-03T15:50:21;4.72;;;0.90;;
12363;SDS011;6246;50.826;4.712;2022-07-03T15:52:48;4.75;;;1.30;;
12363;SDS011;6246;50.826;4.712;2022-07-03T15:55:15;3.67;;;1.50;;
12363;SDS011;6246;50.826;4.712;2022-07-03T15:57:52;9.45;;;1.45;;
12363;SDS011;6246;50.826;4.712;2022-07-03T16:00:20;3.65;;;1.05;;
12363;SDS011;6246;50.826;4.712;2022-07-03T16:02:57;5.07;;;1.02;;
12363;SDS011;6246;50.826;4.712;2022-07-03T16:05:31;4.85;;;1.30;;
12363;SDS011;6246;50.826;4.712;2022-07-03T16:07:58;4.30;;;1.15;;
12363;SDS011;6246;50.826;4.712;2022-07-03T16:10:24;4.75;;;1.05;;
12363;SDS011;6246;50.826;4.712;2022-07-03T16:12:51;3.58;;;1.08;;
12363;SDS011;6246;50.826;4.712;2022-07-03T16:15:18;4.10;;;0.93;;
12363;SDS011;6246;50.826;4.712;2022-07-03T16:17:47;5.82;;;1.20;;
12363;SDS011;6246;50.826;4.712;2022-07-03T16:20:18;6.45;;;1.17;;
12363;SDS011;6246;50.826;4.712;2022-07-03T16:22:45;4.32;;;1.00;;
12363;SDS011;6246;50.826;4.712;2022-07-03T16:25:11;4.15;;;1.30;;
12363;SDS011;6246;50.826;4.712;2022-07-03T16:27:37;3.10;;;1.27;;
12363;SDS011;6246;50.826;4.712;2022-07-03T16:30:04;7.53;;;1.35;;
12363;SDS011;6246;50.826;4.712;2022-07-03T16:32:35;5.47;;;1.42;;
12363;SDS011;6246;50.826;4.712;2022-07-03T16:35:05;3.08;;;1.00;;
12363;SDS011;6246;50.826;4.712;2022-07-03T16:37:37;3.63;;;1.13;;
12363;SDS011;6246;50.826;4.712;2022-07-03T16:40:05;5.25;;;1.30;;
12363;SDS011;6246;50.826;4.712;2022-07-03T16:42:31;3.88;;;0.98;;
12363;SDS011;6246;50.826;4.712;2022-07-03T16:45:00;6.95;;;1.38;;